sensor_id;sensor_type;location;lat;lon;timestamp;temperature;humidity
54642;DHT22;40536;53.194;5.728;2023-10-09T00:01:26;15.00;99.90
54642;DHT22;40536;53.194;5.728;2023-10-09T00:03:52;15.00;99.90
54642;DHT22;40536;53.194;5.728;2023-10-09T00:06:19;15.00;99.90
54642;DHT22;40536;53.194;5.728;2023-10-09T00:08:57;15.00;99.90
54642;DHT22;40536;53.194;5.728;2023-10-09T00:11:24;15.00;99.90
54642;DHT22;40536;53.194;5.728;2023-10-09T00:13:55;15.00;99.90
54642;DHT22;40536;53.194;5.728;2023-10-09T00:16:25;15.00;99.90
54642;DHT22;40536;53.194;5.728;2023-10-09T00:19:05;14.90;99.90
54642;DHT22;40536;53.194;5.728;2023-10-09T00:21:47;14.90;99.90
54642;DHT22;40536;53.194;5.728;2023-10-09T00:24:13;14.90;99.90
54642;DHT22;40536;53.194;5.728;2023-10-09T00:26:45;14.90;99.90
54642;DHT22;40536;53.194;5.728;2023-10-09T00:29:15;14.90;99.90
54642;DHT22;40536;53.194;5.728;2023-10-09T00:31:51;14.90;99.90
54642;DHT22;40536;53.194;5.728;2023-10-09T00:34:22;14.90;99.90
54642;DHT22;40536;53.194;5.728;2023-10-09T00:36:48;14.90;99.90
54642;DHT22;40536;53.194;5.728;2023-10-09T00:39:21;15.00;99.90
54642;DHT22;40536;53.194;5.728;2023-10-09T00:42:07;14.90;99.90
54642;DHT22;40536;53.194;5.728;2023-10-09T00:44:33;14.90;99.90
54642;DHT22;40536;53.194;5.728;2023-10-09T00:47:08;14.90;99.90
54642;DHT22;40536;53.194;5.728;2023-10-09T00:49:50;14.90;99.90
54642;DHT22;40536;53.194;5.728;2023-10-09T00:52:29;14.90;99.90
54642;DHT22;40536;53.194;5.728;2023-10-09T00:55:18;14.90;99.90
54642;DHT22;40536;53.194;5.728;2023-10-09T00:57:54;14.80;99.90
54642;DHT22;40536;53.194;5.728;2023-10-09T01:00:26;14.90;99.90
54642;DHT22;40536;53.194;5.728;2023-10-09T01:03:06;14.90;99.90
54642;DHT22;40536;53.194;5.728;2023-10-09T01:08:21;14.80;99.90
54642;DHT22;40536;53.194;5.728;2023-10-09T01:11:00;14.90;99.90
54642;DHT22;40536;53.194;5.728;2023-10-09T01:13:39;14.80;99.90
54642;DHT22;40536;53.194;5.728;2023-10-09T01:16:10;14.80;99.90
54642;DHT22;40536;53.194;5.728;2023-10-09T01:18:42;14.90;99.90
54642;DHT22;40536;53.194;5.728;2023-10-09T01:21:09;14.90;99.90
54642;DHT22;40536;53.194;5.728;2023-10-09T01:23:45;15.00;99.90
54642;DHT22;40536;53.194;5.728;2023-10-09T01:26:43;14.80;99.90
54642;DHT22;40536;53.194;5.728;2023-10-09T01:31:52;14.80;99.90
54642;DHT22;40536;53.194;5.728;2023-10-09T01:34:25;14.80;99.90
54642;DHT22;40536;53.194;5.728;2023-10-09T01:37:00;14.80;99.90
54642;DHT22;40536;53.194;5.728;2023-10-09T01:39:30;14.80;99.90
54642;DHT22;40536;53.194;5.728;2023-10-09T01:41:56;14.80;99.90
54642;DHT22;40536;53.194;5.728;2023-10-09T01:44:29;14.90;99.90
54642;DHT22;40536;53.194;5.728;2023-10-09T01:47:05;14.90;99.90
54642;DHT22;40536;53.194;5.728;2023-10-09T01:49:34;14.80;99.90
54642;DHT22;40536;53.194;5.728;2023-10-09T01:52:03;14.80;99.90
54642;DHT22;40536;53.194;5.728;2023-10-09T01:54:38;14.90;99.90
54642;DHT22;40536;53.194;5.728;2023-10-09T01:57:08;14.90;99.90
54642;DHT22;40536;53.194;5.728;2023-10-09T01:59:41;14.90;99.90
54642;DHT22;40536;53.194;5.728;2023-10-09T02:02:16;14.80;99.90
54642;DHT22;40536;53.194;5.728;2023-10-09T02:04:42;14.90;99.90
54642;DHT22;40536;53.194;5.728;2023-10-09T02:07:08;14.90;99.90
54642;DHT22;40536;53.194;5.728;2023-10-09T02:09:34;14.90;99.90
54642;DHT22;40536;53.194;5.728;2023-10-09T02:12:01;14.90;99.90
54642;DHT22;40536;53.194;5.728;2023-10-09T02:14:28;14.80;99.90
54642;DHT22;40536;53.194;5.728;2023-10-09T02:16:53;14.80;99.90
54642;DHT22;40536;53.194;5.728;2023-10-09T02:19:29;14.80;99.90
54642;DHT22;40536;53.194;5.728;2023-10-09T02:21:59;14.80;99.90
54642;DHT22;40536;53.194;5.728;2023-10-09T02:24:26;14.80;99.90
54642;DHT22;40536;53.194;5.728;2023-10-09T02:26:54;14.80;99.90
54642;DHT22;40536;53.194;5.728;2023-10-09T02:29:19;14.80;99.90
54642;DHT22;40536;53.194;5.728;2023-10-09T02:31:50;14.80;99.90
54642;DHT22;40536;53.194;5.728;2023-10-09T02:34:17;14.90;99.90
54642;DHT22;40536;53.194;5.728;2023-10-09T02:36:52;14.90;99.90
54642;DHT22;40536;53.194;5.728;2023-10-09T02:39:24;14.90;99.90
54642;DHT22;40536;53.194;5.728;2023-10-09T02:41:57;15.00;99.90
54642;DHT22;40536;53.194;5.728;2023-10-09T02:44:28;15.00;99.90
54642;DHT22;40536;53.194;5.728;2023-10-09T02:46:57;15.00;99.90
54642;DHT22;40536;53.194;5.728;2023-10-09T02:49:24;15.10;99.90
54642;DHT22;40536;53.194;5.728;2023-10-09T02:51:51;15.10;99.90
54642;DHT22;40536;53.194;5.728;2023-10-09T02:54:20;15.10;99.90
54642;DHT22;40536;53.194;5.728;2023-10-09T02:56:51;15.20;99.90
54642;DHT22;40536;53.194;5.728;2023-10-09T02:59:31;15.20;99.90
54642;DHT22;40536;53.194;5.728;2023-10-09T03:01:57;15.30;99.90
54642;DHT22;40536;53.194;5.728;2023-10-09T03:04:28;15.40;99.90
54642;DHT22;40536;53.194;5.728;2023-10-09T03:06:55;15.40;99.90
54642;DHT22;40536;53.194;5.728;2023-10-09T03:09:23;15.50;99.90
54642;DHT22;40536;53.194;5.728;2023-10-09T03:12:01;15.50;99.90
54642;DHT22;40536;53.194;5.728;2023-10-09T03:14:31;15.60;99.90
54642;DHT22;40536;53.194;5.728;2023-10-09T03:16:58;15.60;99.90
54642;DHT22;40536;53.194;5.728;2023-10-09T03:19:26;15.60;99.90
54642;DHT22;40536;53.194;5.728;2023-10-09T03:21:52;15.70;99.90
54642;DHT22;40536;53.194;5.728;2023-10-09T03:24:18;15.70;99.90
54642;DHT22;40536;53.194;5.728;2023-10-09T03:26:45;15.70;99.90
54642;DHT22;40536;53.194;5.728;2023-10-09T03:29:11;15.80;99.90
54642;DHT22;40536;53.194;5.728;2023-10-09T03:31:37;15.80;99.90
54642;DHT22;40536;53.194;5.728;2023-10-09T03:34:03;15.90;99.90
54642;DHT22;40536;53.194;5.728;2023-10-09T03:36:29;15.90;99.90
54642;DHT22;40536;53.194;5.728;2023-10-09T03:38:59;16.00;99.90
54642;DHT22;40536;53.194;5.728;2023-10-09T03:41:25;16.00;99.90
54642;DHT22;40536;53.194;5.728;2023-10-09T03:43:54;16.10;99.90
54642;DHT22;40536;53.194;5.728;2023-10-09T03:46:21;16.20;99.90
54642;DHT22;40536;53.194;5.728;2023-10-09T03:48:51;16.20;99.90
54642;DHT22;40536;53.194;5.728;2023-10-09T03:51:18;16.20;99.90
54642;DHT22;40536;53.194;5.728;2023-10-09T03:53:48;16.30;99.90
54642;DHT22;40536;53.194;5.728;2023-10-09T03:56:14;16.30;99.90
54642;DHT22;40536;53.194;5.728;2023-10-09T03:58:45;16.40;99.90
54642;DHT22;40536;53.194;5.728;2023-10-09T04:01:17;16.40;99.90
54642;DHT22;40536;53.194;5.728;2023-10-09T04:03:50;16.40;99.90
54642;DHT22;40536;53.194;5.728;2023-10-09T04:06:27;16.40;99.90
54642;DHT22;40536;53.194;5.728;2023-10-09T04:09:00;16.40;99.90
54642;DHT22;40536;53.194;5.728;2023-10-09T04:11:39;16.40;99.90
54642;DHT22;40536;53.194;5.728;2023-10-09T04:14:08;16.50;99.90
54642;DHT22;40536;53.194;5.728;2023-10-09T04:16:37;16.50;99.90
54642;DHT22;40536;53.194;5.728;2023-10-09T04:19:17;16.50;99.90
54642;DHT22;40536;53.194;5.728;2023-10-09T04:21:48;16.40;99.90
54642;DHT22;40536;53.194;5.728;2023-10-09T04:24:14;16.40;99.90
54642;DHT22;40536;53.194;5.728;2023-10-09T04:26:41;16.40;99.90
54642;DHT22;40536;53.194;5.728;2023-10-09T04:29:13;16.40;99.90
54642;DHT22;40536;53.194;5.728;2023-10-09T04:31:55;16.30;99.90
54642;DHT22;40536;53.194;5.728;2023-10-09T04:34:25;16.30;99.90
54642;DHT22;40536;53.194;5.728;2023-10-09T04:36:57;16.30;99.90
54642;DHT22;40536;53.194;5.728;2023-10-09T04:39:27;16.30;99.90
54642;DHT22;40536;53.194;5.728;2023-10-09T04:41:56;16.30;99.90
54642;DHT22;40536;53.194;5.728;2023-10-09T04:44:44;16.20;99.90
54642;DHT22;40536;53.194;5.728;2023-10-09T04:47:29;16.20;99.90
54642;DHT22;40536;53.194;5.728;2023-10-09T04:50:11;16.20;99.90
54642;DHT22;40536;53.194;5.728;2023-10-09T04:52:38;16.20;99.90
54642;DHT22;40536;53.194;5.728;2023-10-09T04:55:05;16.20;99.90
54642;DHT22;40536;53.194;5.728;2023-10-09T04:57:44;16.20;99.90
54642;DHT22;40536;53.194;5.728;2023-10-09T05:00:17;16.20;99.90
54642;DHT22;40536;53.194;5.728;2023-10-09T05:02:56;16.20;99.90
54642;DHT22;40536;53.194;5.728;2023-10-09T05:05:31;16.20;99.90
54642;DHT22;40536;53.194;5.728;2023-10-09T05:08:15;16.20;99.90
54642;DHT22;40536;53.194;5.728;2023-10-09T05:10:58;16.20;99.90
54642;DHT22;40536;53.194;5.728;2023-10-09T05:16:10;16.20;99.90
54642;DHT22;40536;53.194;5.728;2023-10-09T05:18:41;16.20;99.90
54642;DHT22;40536;53.194;5.728;2023-10-09T05:21:07;16.20;99.90
54642;DHT22;40536;53.194;5.728;2023-10-09T05:23:42;16.20;99.90
54642;DHT22;40536;53.194;5.728;2023-10-09T05:26:26;16.20;99.90
54642;DHT22;40536;53.194;5.728;2023-10-09T05:28:52;16.20;99.90
54642;DHT22;40536;53.194;5.728;2023-10-09T05:31:18;16.20;99.90
54642;DHT22;40536;53.194;5.728;2023-10-09T05:34:10;16.20;99.90
54642;DHT22;40536;53.194;5.728;2023-10-09T05:36:44;16.20;99.90
54642;DHT22;40536;53.194;5.728;2023-10-09T05:39:13;16.20;99.90
54642;DHT22;40536;53.194;5.728;2023-10-09T05:41:47;16.20;99.90
54642;DHT22;40536;53.194;5.728;2023-10-09T05:44:26;16.20;99.90
54642;DHT22;40536;53.194;5.728;2023-10-09T05:47:10;16.20;99.90
54642;DHT22;40536;53.194;5.728;2023-10-09T05:50:01;16.20;99.90
54642;DHT22;40536;53.194;5.728;2023-10-09T05:52:30;16.20;99.90
54642;DHT22;40536;53.194;5.728;2023-10-09T05:55:07;16.20;99.90
54642;DHT22;40536;53.194;5.728;2023-10-09T05:57:45;16.20;99.90
54642;DHT22;40536;53.194;5.728;2023-10-09T06:00:29;16.20;99.90
54642;DHT22;40536;53.194;5.728;2023-10-09T06:03:14;16.30;99.90
54642;DHT22;40536;53.194;5.728;2023-10-09T06:05:53;16.30;99.90
54642;DHT22;40536;53.194;5.728;2023-10-09T06:08:26;16.20;99.90
54642;DHT22;40536;53.194;5.728;2023-10-09T06:10:57;16.20;99.90
54642;DHT22;40536;53.194;5.728;2023-10-09T06:13:32;16.20;99.90
54642;DHT22;40536;53.194;5.728;2023-10-09T06:16:05;16.30;99.90
54642;DHT22;40536;53.194;5.728;2023-10-09T06:18:57;16.30;99.90
54642;DHT22;40536;53.194;5.728;2023-10-09T06:21:41;16.30;99.90
54642;DHT22;40536;53.194;5.728;2023-10-09T06:24:19;16.20;99.90
54642;DHT22;40536;53.194;5.728;2023-10-09T06:26:46;16.30;99.90
54642;DHT22;40536;53.194;5.728;2023-10-09T06:29:38;16.30;99.90
54642;DHT22;40536;53.194;5.728;2023-10-09T06:32:17;16.30;99.90
54642;DHT22;40536;53.194;5.728;2023-10-09T06:34:57;16.20;99.90
54642;DHT22;40536;53.194;5.728;2023-10-09T06:37:51;16.20;99.90
54642;DHT22;40536;53.194;5.728;2023-10-09T06:40:39;16.10;99.90
54642;DHT22;40536;53.194;5.728;2023-10-09T06:43:24;16.10;99.90
54642;DHT22;40536;53.194;5.728;2023-10-09T06:45:56;16.10;99.90
54642;DHT22;40536;53.194;5.728;2023-10-09T06:48:41;16.00;99.90
54642;DHT22;40536;53.194;5.728;2023-10-09T06:51:13;16.00;99.90
54642;DHT22;40536;53.194;5.728;2023-10-09T06:53:57;16.00;99.90
54642;DHT22;40536;53.194;5.728;2023-10-09T06:56:32;16.00;99.90
54642;DHT22;40536;53.194;5.728;2023-10-09T06:58:58;16.00;99.90
54642;DHT22;40536;53.194;5.728;2023-10-09T07:01:25;16.00;99.90
54642;DHT22;40536;53.194;5.728;2023-10-09T07:03:57;16.00;99.90
54642;DHT22;40536;53.194;5.728;2023-10-09T07:06:35;16.00;99.90
54642;DHT22;40536;53.194;5.728;2023-10-09T07:09:01;16.00;99.90
54642;DHT22;40536;53.194;5.728;2023-10-09T07:11:43;16.00;99.90
54642;DHT22;40536;53.194;5.728;2023-10-09T07:14:12;16.00;99.90
54642;DHT22;40536;53.194;5.728;2023-10-09T07:17:03;16.00;99.90
54642;DHT22;40536;53.194;5.728;2023-10-09T07:19:42;16.00;99.90
54642;DHT22;40536;53.194;5.728;2023-10-09T07:22:09;16.00;99.90
54642;DHT22;40536;53.194;5.728;2023-10-09T07:24:43;16.00;99.90
54642;DHT22;40536;53.194;5.728;2023-10-09T07:27:10;16.10;99.90
54642;DHT22;40536;53.194;5.728;2023-10-09T07:29:39;16.10;99.90
54642;DHT22;40536;53.194;5.728;2023-10-09T07:32:17;16.10;99.90
54642;DHT22;40536;53.194;5.728;2023-10-09T07:34:47;16.20;99.90
54642;DHT22;40536;53.194;5.728;2023-10-09T07:37:22;16.10;99.90
54642;DHT22;40536;53.194;5.728;2023-10-09T07:39:56;16.20;99.90
54642;DHT22;40536;53.194;5.728;2023-10-09T07:42:27;16.20;99.90
54642;DHT22;40536;53.194;5.728;2023-10-09T07:45:02;16.20;99.90
54642;DHT22;40536;53.194;5.728;2023-10-09T07:47:50;16.30;99.90
54642;DHT22;40536;53.194;5.728;2023-10-09T07:50:26;16.30;99.90
54642;DHT22;40536;53.194;5.728;2023-10-09T07:53:05;16.30;99.90
54642;DHT22;40536;53.194;5.728;2023-10-09T07:55:49;16.30;99.90
54642;DHT22;40536;53.194;5.728;2023-10-09T07:58:24;16.40;99.90
54642;DHT22;40536;53.194;5.728;2023-10-09T08:00:53;16.30;99.90
54642;DHT22;40536;53.194;5.728;2023-10-09T08:03:47;16.30;99.90
54642;DHT22;40536;53.194;5.728;2023-10-09T08:06:13;16.40;99.90
54642;DHT22;40536;53.194;5.728;2023-10-09T08:08:57;16.40;99.90
54642;DHT22;40536;53.194;5.728;2023-10-09T08:11:40;16.40;99.90
54642;DHT22;40536;53.194;5.728;2023-10-09T08:14:09;16.40;99.90
54642;DHT22;40536;53.194;5.728;2023-10-09T08:17:07;16.40;99.90
54642;DHT22;40536;53.194;5.728;2023-10-09T08:19:51;16.40;99.90
54642;DHT22;40536;53.194;5.728;2023-10-09T08:22:26;16.40;99.90
54642;DHT22;40536;53.194;5.728;2023-10-09T08:24:53;16.40;99.90
54642;DHT22;40536;53.194;5.728;2023-10-09T08:27:25;16.40;99.90
54642;DHT22;40536;53.194;5.728;2023-10-09T08:30:04;16.40;99.90
54642;DHT22;40536;53.194;5.728;2023-10-09T08:33:02;16.50;99.90
54642;DHT22;40536;53.194;5.728;2023-10-09T08:35:29;16.60;99.90
54642;DHT22;40536;53.194;5.728;2023-10-09T08:38:03;16.60;99.90
54642;DHT22;40536;53.194;5.728;2023-10-09T08:40:38;16.60;99.90
54642;DHT22;40536;53.194;5.728;2023-10-09T08:43:25;16.60;99.90
54642;DHT22;40536;53.194;5.728;2023-10-09T08:46:06;16.60;99.90
54642;DHT22;40536;53.194;5.728;2023-10-09T08:48:38;16.60;99.90
54642;DHT22;40536;53.194;5.728;2023-10-09T08:51:11;16.70;99.90
54642;DHT22;40536;53.194;5.728;2023-10-09T08:53:43;16.60;99.90
54642;DHT22;40536;53.194;5.728;2023-10-09T08:56:15;16.70;99.90
54642;DHT22;40536;53.194;5.728;2023-10-09T08:58:52;16.70;99.90
54642;DHT22;40536;53.194;5.728;2023-10-09T09:01:34;16.70;99.90
54642;DHT22;40536;53.194;5.728;2023-10-09T09:04:09;16.80;99.90
54642;DHT22;40536;53.194;5.728;2023-10-09T09:06:48;16.80;99.90
54642;DHT22;40536;53.194;5.728;2023-10-09T09:09:14;16.90;99.90
54642;DHT22;40536;53.194;5.728;2023-10-09T09:11:55;17.00;99.90
54642;DHT22;40536;53.194;5.728;2023-10-09T09:14:36;17.00;99.90
54642;DHT22;40536;53.194;5.728;2023-10-09T09:17:08;17.00;99.90
54642;DHT22;40536;53.194;5.728;2023-10-09T09:19:37;17.00;99.90
54642;DHT22;40536;53.194;5.728;2023-10-09T09:22:03;17.10;99.90
54642;DHT22;40536;53.194;5.728;2023-10-09T09:24:40;17.10;99.90
54642;DHT22;40536;53.194;5.728;2023-10-09T09:27:13;17.10;99.90
54642;DHT22;40536;53.194;5.728;2023-10-09T09:29:43;17.20;99.90
54642;DHT22;40536;53.194;5.728;2023-10-09T09:32:30;17.20;99.90
54642;DHT22;40536;53.194;5.728;2023-10-09T09:35:02;17.20;99.90
54642;DHT22;40536;53.194;5.728;2023-10-09T09:37:31;17.30;99.90
54642;DHT22;40536;53.194;5.728;2023-10-09T09:40:07;17.30;99.90
54642;DHT22;40536;53.194;5.728;2023-10-09T09:42:58;17.30;99.90
54642;DHT22;40536;53.194;5.728;2023-10-09T09:45:37;17.40;99.90
54642;DHT22;40536;53.194;5.728;2023-10-09T09:48:04;17.50;99.90
54642;DHT22;40536;53.194;5.728;2023-10-09T09:50:36;17.40;99.90
54642;DHT22;40536;53.194;5.728;2023-10-09T09:53:15;17.50;99.90
54642;DHT22;40536;53.194;5.728;2023-10-09T09:55:51;17.40;99.90
54642;DHT22;40536;53.194;5.728;2023-10-09T09:58:21;17.50;99.90
54642;DHT22;40536;53.194;5.728;2023-10-09T10:00:53;17.50;99.90
54642;DHT22;40536;53.194;5.728;2023-10-09T10:03:27;17.50;99.90
54642;DHT22;40536;53.194;5.728;2023-10-09T10:05:56;17.40;99.90
54642;DHT22;40536;53.194;5.728;2023-10-09T10:08:23;17.40;99.90
54642;DHT22;40536;53.194;5.728;2023-10-09T10:10:58;17.40;99.90
54642;DHT22;40536;53.194;5.728;2023-10-09T10:16:08;17.40;99.90
54642;DHT22;40536;53.194;5.728;2023-10-09T10:21:19;17.40;99.90
54642;DHT22;40536;53.194;5.728;2023-10-09T10:24:02;17.40;99.90
54642;DHT22;40536;53.194;5.728;2023-10-09T10:26:37;17.50;99.90
54642;DHT22;40536;53.194;5.728;2023-10-09T10:29:21;17.50;99.90
54642;DHT22;40536;53.194;5.728;2023-10-09T10:32:00;17.80;99.90
54642;DHT22;40536;53.194;5.728;2023-10-09T10:34:53;18.00;99.90
54642;DHT22;40536;53.194;5.728;2023-10-09T10:37:42;18.00;99.90
54642;DHT22;40536;53.194;5.728;2023-10-09T10:40:26;18.10;99.90
54642;DHT22;40536;53.194;5.728;2023-10-09T10:43:07;18.20;99.90
54642;DHT22;40536;53.194;5.728;2023-10-09T10:46:09;18.30;99.90
54642;DHT22;40536;53.194;5.728;2023-10-09T10:48:55;18.40;99.90
54642;DHT22;40536;53.194;5.728;2023-10-09T10:51:39;18.50;99.90
54642;DHT22;40536;53.194;5.728;2023-10-09T10:54:07;18.60;99.90
54642;DHT22;40536;53.194;5.728;2023-10-09T10:56:54;18.50;99.90
54642;DHT22;40536;53.194;5.728;2023-10-09T10:59:23;18.20;99.90
54642;DHT22;40536;53.194;5.728;2023-10-09T11:01:52;18.10;99.90
54642;DHT22;40536;53.194;5.728;2023-10-09T11:04:29;18.00;99.90
54642;DHT22;40536;53.194;5.728;2023-10-09T11:07:02;17.90;99.90
54642;DHT22;40536;53.194;5.728;2023-10-09T11:09:50;17.80;99.90
54642;DHT22;40536;53.194;5.728;2023-10-09T11:15:31;17.70;99.90
54642;DHT22;40536;53.194;5.728;2023-10-09T11:18:14;17.60;99.90
54642;DHT22;40536;53.194;5.728;2023-10-09T11:20:56;17.60;99.90
54642;DHT22;40536;53.194;5.728;2023-10-09T11:23:25;17.50;99.90
54642;DHT22;40536;53.194;5.728;2023-10-09T11:26:00;17.40;99.90
54642;DHT22;40536;53.194;5.728;2023-10-09T11:29:12;17.40;99.90
54642;DHT22;40536;53.194;5.728;2023-10-09T11:31:57;17.30;99.90
54642;DHT22;40536;53.194;5.728;2023-10-09T11:34:25;17.30;99.90
54642;DHT22;40536;53.194;5.728;2023-10-09T11:39:34;17.60;99.90
54642;DHT22;40536;53.194;5.728;2023-10-09T11:42:03;17.90;99.90
54642;DHT22;40536;53.194;5.728;2023-10-09T11:44:40;18.10;99.90
54642;DHT22;40536;53.194;5.728;2023-10-09T11:47:07;18.30;99.90
54642;DHT22;40536;53.194;5.728;2023-10-09T11:49:52;18.30;99.90
54642;DHT22;40536;53.194;5.728;2023-10-09T11:52:28;18.30;99.90
54642;DHT22;40536;53.194;5.728;2023-10-09T11:54:58;18.40;99.90
54642;DHT22;40536;53.194;5.728;2023-10-09T11:57:25;18.40;99.90
54642;DHT22;40536;53.194;5.728;2023-10-09T12:00:04;18.60;99.90
54642;DHT22;40536;53.194;5.728;2023-10-09T12:02:53;18.80;99.90
54642;DHT22;40536;53.194;5.728;2023-10-09T12:05:18;18.90;99.90
54642;DHT22;40536;53.194;5.728;2023-10-09T12:07:45;18.90;99.90
54642;DHT22;40536;53.194;5.728;2023-10-09T12:10:12;18.90;99.90
54642;DHT22;40536;53.194;5.728;2023-10-09T12:12:41;18.80;99.90
54642;DHT22;40536;53.194;5.728;2023-10-09T12:15:12;18.80;99.90
54642;DHT22;40536;53.194;5.728;2023-10-09T12:17:44;18.80;99.90
54642;DHT22;40536;53.194;5.728;2023-10-09T12:20:13;18.80;99.90
54642;DHT22;40536;53.194;5.728;2023-10-09T12:22:59;18.70;99.90
54642;DHT22;40536;53.194;5.728;2023-10-09T12:25:30;18.60;99.90
54642;DHT22;40536;53.194;5.728;2023-10-09T12:27:58;18.50;99.90
54642;DHT22;40536;53.194;5.728;2023-10-09T12:30:25;18.40;99.90
54642;DHT22;40536;53.194;5.728;2023-10-09T12:32:55;18.30;99.90
54642;DHT22;40536;53.194;5.728;2023-10-09T12:35:23;18.30;99.90
54642;DHT22;40536;53.194;5.728;2023-10-09T12:37:51;18.30;99.90
54642;DHT22;40536;53.194;5.728;2023-10-09T12:40:17;18.40;99.90
54642;DHT22;40536;53.194;5.728;2023-10-09T12:43:18;18.50;99.90
54642;DHT22;40536;53.194;5.728;2023-10-09T12:46:05;18.50;99.90
54642;DHT22;40536;53.194;5.728;2023-10-09T12:48:32;18.10;99.90
54642;DHT22;40536;53.194;5.728;2023-10-09T12:51:07;18.10;99.90
54642;DHT22;40536;53.194;5.728;2023-10-09T12:53:38;18.00;99.90
54642;DHT22;40536;53.194;5.728;2023-10-09T12:56:34;18.00;99.90
54642;DHT22;40536;53.194;5.728;2023-10-09T12:59:03;18.10;99.90
54642;DHT22;40536;53.194;5.728;2023-10-09T13:01:47;18.10;99.90
54642;DHT22;40536;53.194;5.728;2023-10-09T13:04:23;18.20;99.90
54642;DHT22;40536;53.194;5.728;2023-10-09T13:06:49;18.10;99.90
54642;DHT22;40536;53.194;5.728;2023-10-09T13:09:21;18.00;99.90
54642;DHT22;40536;53.194;5.728;2023-10-09T13:11:58;17.90;99.90
54642;DHT22;40536;53.194;5.728;2023-10-09T13:14:31;17.90;99.90
54642;DHT22;40536;53.194;5.728;2023-10-09T13:16:59;17.80;99.90
54642;DHT22;40536;53.194;5.728;2023-10-09T13:22:44;17.90;99.90
54642;DHT22;40536;53.194;5.728;2023-10-09T13:26:02;17.90;99.90
54642;DHT22;40536;53.194;5.728;2023-10-09T13:29:09;17.30;99.90
54642;DHT22;40536;53.194;5.728;2023-10-09T13:31:41;17.90;99.90
54642;DHT22;40536;53.194;5.728;2023-10-09T13:34:12;17.80;99.90
54642;DHT22;40536;53.194;5.728;2023-10-09T13:36:51;17.80;99.90
54642;DHT22;40536;53.194;5.728;2023-10-09T13:39:47;17.80;99.90
54642;DHT22;40536;53.194;5.728;2023-10-09T13:42:22;17.90;99.90
54642;DHT22;40536;53.194;5.728;2023-10-09T13:45:19;17.80;99.90
54642;DHT22;40536;53.194;5.728;2023-10-09T13:47:53;18.00;99.90
54642;DHT22;40536;53.194;5.728;2023-10-09T13:50:23;18.00;99.90
54642;DHT22;40536;53.194;5.728;2023-10-09T13:52:56;18.00;99.90
54642;DHT22;40536;53.194;5.728;2023-10-09T13:56:03;18.10;99.90
54642;DHT22;40536;53.194;5.728;2023-10-09T14:01:10;18.10;99.90
54642;DHT22;40536;53.194;5.728;2023-10-09T14:03:37;18.00;99.90
54642;DHT22;40536;53.194;5.728;2023-10-09T14:07:09;18.00;99.90
54642;DHT22;40536;53.194;5.728;2023-10-09T14:09:45;17.90;99.90
54642;DHT22;40536;53.194;5.728;2023-10-09T14:12:41;18.00;99.90
54642;DHT22;40536;53.194;5.728;2023-10-09T14:15:10;18.00;99.90
54642;DHT22;40536;53.194;5.728;2023-10-09T14:17:57;17.80;99.90
54642;DHT22;40536;53.194;5.728;2023-10-09T14:20:23;18.00;99.90
54642;DHT22;40536;53.194;5.728;2023-10-09T14:22:55;18.10;99.90
54642;DHT22;40536;53.194;5.728;2023-10-09T14:25:24;18.10;99.90
54642;DHT22;40536;53.194;5.728;2023-10-09T14:30:45;18.10;99.90
54642;DHT22;40536;53.194;5.728;2023-10-09T14:33:23;18.00;99.90
54642;DHT22;40536;53.194;5.728;2023-10-09T14:35:55;17.80;99.90
54642;DHT22;40536;53.194;5.728;2023-10-09T14:38:30;17.70;99.90
54642;DHT22;40536;53.194;5.728;2023-10-09T14:41:07;17.60;99.90
54642;DHT22;40536;53.194;5.728;2023-10-09T14:43:37;17.40;99.90
54642;DHT22;40536;53.194;5.728;2023-10-09T14:46:02;17.50;99.90
54642;DHT22;40536;53.194;5.728;2023-10-09T14:48:30;17.50;99.90
54642;DHT22;40536;53.194;5.728;2023-10-09T14:51:02;17.60;99.90
54642;DHT22;40536;53.194;5.728;2023-10-09T14:53:44;17.70;99.90
54642;DHT22;40536;53.194;5.728;2023-10-09T14:56:09;17.30;99.90
54642;DHT22;40536;53.194;5.728;2023-10-09T14:58:43;17.70;99.90
54642;DHT22;40536;53.194;5.728;2023-10-09T15:01:11;17.60;99.90
54642;DHT22;40536;53.194;5.728;2023-10-09T15:03:38;17.60;99.90
54642;DHT22;40536;53.194;5.728;2023-10-09T15:06:04;17.60;99.90
54642;DHT22;40536;53.194;5.728;2023-10-09T15:08:34;17.60;99.90
54642;DHT22;40536;53.194;5.728;2023-10-09T15:11:04;17.50;99.90
54642;DHT22;40536;53.194;5.728;2023-10-09T15:13:31;17.50;99.90
54642;DHT22;40536;53.194;5.728;2023-10-09T15:16:06;17.40;99.90
54642;DHT22;40536;53.194;5.728;2023-10-09T15:18:32;17.40;99.90
54642;DHT22;40536;53.194;5.728;2023-10-09T15:21:02;17.30;99.90
54642;DHT22;40536;53.194;5.728;2023-10-09T15:23:37;17.30;99.90
54642;DHT22;40536;53.194;5.728;2023-10-09T15:26:04;17.20;99.90
54642;DHT22;40536;53.194;5.728;2023-10-09T15:28:51;17.30;99.90
54642;DHT22;40536;53.194;5.728;2023-10-09T15:31:23;17.20;99.90
54642;DHT22;40536;53.194;5.728;2023-10-09T15:34:20;17.20;99.90
54642;DHT22;40536;53.194;5.728;2023-10-09T15:36:53;17.10;99.90
54642;DHT22;40536;53.194;5.728;2023-10-09T15:39:19;17.00;99.90
54642;DHT22;40536;53.194;5.728;2023-10-09T15:41:48;17.10;99.90
54642;DHT22;40536;53.194;5.728;2023-10-09T15:44:17;17.00;99.90
54642;DHT22;40536;53.194;5.728;2023-10-09T15:47:12;17.00;99.90
54642;DHT22;40536;53.194;5.728;2023-10-09T15:50:37;16.90;99.90
54642;DHT22;40536;53.194;5.728;2023-10-09T15:54:06;16.20;99.90
54642;DHT22;40536;53.194;5.728;2023-10-09T15:56:57;16.70;99.90
54642;DHT22;40536;53.194;5.728;2023-10-09T15:59:24;16.70;99.90
54642;DHT22;40536;53.194;5.728;2023-10-09T16:02:23;17.40;99.90
54642;DHT22;40536;53.194;5.728;2023-10-09T16:08:26;16.30;99.90
54642;DHT22;40536;53.194;5.728;2023-10-09T16:11:24;16.60;99.90
54642;DHT22;40536;53.194;5.728;2023-10-09T16:17:41;16.60;99.90
54642;DHT22;40536;53.194;5.728;2023-10-09T16:20:32;16.60;99.90
54642;DHT22;40536;53.194;5.728;2023-10-09T16:23:00;16.50;99.90
54642;DHT22;40536;53.194;5.728;2023-10-09T16:25:30;16.50;99.90
54642;DHT22;40536;53.194;5.728;2023-10-09T16:28:19;16.50;99.90
54642;DHT22;40536;53.194;5.728;2023-10-09T16:31:10;16.50;99.90
54642;DHT22;40536;53.194;5.728;2023-10-09T16:34:05;16.50;99.90
54642;DHT22;40536;53.194;5.728;2023-10-09T16:36:36;16.40;99.90
54642;DHT22;40536;53.194;5.728;2023-10-09T16:39:07;16.40;99.90
54642;DHT22;40536;53.194;5.728;2023-10-09T16:42:02;16.30;99.90
54642;DHT22;40536;53.194;5.728;2023-10-09T16:44:40;16.30;99.90
54642;DHT22;40536;53.194;5.728;2023-10-09T16:47:06;16.30;99.90
54642;DHT22;40536;53.194;5.728;2023-10-09T16:49:32;16.20;99.90
54642;DHT22;40536;53.194;5.728;2023-10-09T16:51:58;16.20;99.90
54642;DHT22;40536;53.194;5.728;2023-10-09T16:54:35;16.30;99.90
54642;DHT22;40536;53.194;5.728;2023-10-09T16:57:19;16.20;99.90